Time;durP1;ratioP1;P1;durP2;ratioP2;P2;SDS_P1;SDS_P2;PMS_P1;PMS_P2;Temp;Humidity;BMP_temperature;BMP_pressure;BME280_temperature;BME280_humidity;BME280_pressure;Samples;Min_cycle;Max_cycle;Signal;HPM_P1;HPM_P2
2023/07/04 00:00:12;;;;;;;;;;;;;;;;;;7364564;19;1744;-64
2023/07/04 00:02:40;;;;;;;;;;;;;;;;;;7366920;19;2110;-64
2023/07/04 00:05:09;;;;;;;;;;;;;;;;;;7369308;19;2079;-63
2023/07/04 00:07:40;;;;;;;;;;;;;;;;;;7368471;19;2003;-65
2023/07/04 00:10:08;;;;;;;;;;;;;;;;;;7366482;19;2547;-62
2023/07/04 00:12:36;;;;;;;;;;;;;;;;;;7367349;19;1963;-61
2023/07/04 00:15:05;;;;;;;;;;;;;;;;;;7370181;19;1709;-61
2023/07/04 00:17:33;;;;;;;;;;;;;;;;;;7364309;19;816;-62
2023/07/04 00:20:03;;;;;;;;;;;;;;;;;;7366648;19;1685;-62
2023/07/04 00:22:33;;;;;;;;;;;;;;;;;;7367853;19;1896;-62
2023/07/04 00:25:01;;;;;;;;;;;;;;;;;;7369985;19;1463;-63
2023/07/04 00:27:33;;;;;;;;;;;;;;;;;;7364764;19;816;-61
2023/07/04 00:30:04;;;;;;;;;;;;;;;;;;7364378;19;2124;-62
2023/07/04 00:32:32;;;;;;;;;;;;;;;;;;7366230;19;1820;-63
2023/07/04 00:35:02;;;;;;;;;;;;;;;;;;7369826;19;1456;-62
2023/07/04 00:37:31;;;;;;;;;;;;;;;;;;7365099;19;764;-61
2023/07/04 00:40:01;;;;;;;;;;;;;;;;;;7363634;19;833;-63
2023/07/04 00:42:31;;;;;;;;;;;;;;;;;;7364910;19;2293;-62
2023/07/04 00:44:59;;;;;;;;;;;;;;;;;;7365906;19;2101;-62
2023/07/04 00:47:42;;;;;;;;;;;;;;;;;;7367811;19;2045;-64
2023/07/04 00:50:13;;;;;;;;;;;;;;;;;;7362905;19;1846;-61
2023/07/04 00:52:42;;;;;;;;;;;;;;;;;;7363747;19;1837;-62
2023/07/04 00:55:10;;;;;;;;;;;;;;;;;;7368315;19;1572;-62
2023/07/04 00:57:39;;;;;;;;;;;;;;;;;;7364126;19;2010;-62
2023/07/04 01:00:14;;;;;;;;;;;;;;;;;;7365015;19;1700;-63
2023/07/04 01:02:45;;;;;;;;;;;;;;;;;;7370624;19;1623;-63
2023/07/04 01:05:13;;;;;;;;;;;;;;;;;;7372023;19;1692;-63
2023/07/04 01:07:42;;;;;;;;;;;;;;;;;;7370387;19;2279;-64
2023/07/04 01:10:10;;;;;;;;;;;;;;;;;;7370348;19;1862;-63
2023/07/04 01:12:39;;;;;;;;;;;;;;;;;;7369690;19;1694;-60
2023/07/04 01:15:07;;;;;;;;;;;;;;;;;;7371768;19;1771;-64
2023/07/04 01:17:35;;;;;;;;;;;;;;;;;;7373148;19;1777;-63
2023/07/04 01:20:04;;;;;;;;;;;;;;;;;;7373448;19;1672;-64
2023/07/04 01:22:33;;;;;;;;;;;;;;;;;;7368020;19;1719;-65
2023/07/04 01:25:01;;;;;;;;;;;;;;;;;;7373385;19;1717;-65
2023/07/04 01:27:29;;;;;;;;;;;;;;;;;;7373377;19;1641;-65
2023/07/04 01:30:00;;;;;;;;;;;;;;;;;;7368487;19;1857;-66
2023/07/04 01:32:28;;;;;;;;;;;;;;;;;;7371632;19;1963;-64
2023/07/04 01:35:00;;;;;;;;;;;;;;;;;;7372644;19;1876;-64
2023/07/04 01:37:29;;;;;;;;;;;;;;;;;;7369433;19;1796;-65
2023/07/04 01:39:58;;;;;;;;;;;;;;;;;;7371752;19;1491;-65
2023/07/04 01:42:30;;;;;;;;;;;;;;;;;;7369550;19;1344;-64
2023/07/04 01:45:00;;;;;;;;;;;;;;;;;;7368768;19;1879;-63
2023/07/04 01:47:28;;;;;;;;;;;;;;;;;;7370430;19;1930;-63
2023/07/04 01:49:56;;;;;;;;;;;;;;;;;;7372874;19;1861;-63
2023/07/04 01:52:24;;;;;;;;;;;;;;;;;;7370100;19;2003;-63
2023/07/04 01:54:52;;;;;;;;;;;;;;;;;;7372008;19;1575;-64
2023/07/04 01:57:20;;;;;;;;;;;;;;;;;;7368298;19;1712;-64
2023/07/04 01:59:48;;;;;;;;;;;;;;;;;;7370916;19;1699;-64
2023/07/04 02:02:17;;;;;;;;;;;;;;;;;;7367281;19;1335;-64
2023/07/04 02:04:45;;;;;;;;;;;;;;;;;;7371230;19;1824;-64
2023/07/04 02:07:13;;;;;;;;;;;;;;;;;;7371041;19;1935;-63
2023/07/04 02:09:42;;;;;;;;;;;;;;;;;;7369558;19;1618;-63
2023/07/04 02:12:10;;;;;;;;;;;;;;;;;;7367638;19;1850;-62
2023/07/04 02:14:38;;;;;;;;;;;;;;;;;;7371396;19;1762;-62
2023/07/04 02:17:06;;;;;;;;;;;;;;;;;;7372220;19;1800;-63
2023/07/04 02:19:35;;;;;;;;;;;;;;;;;;7371728;19;1663;-63
2023/07/04 02:22:03;;;;;;;;;;;;;;;;;;7369974;19;1777;-63
2023/07/04 02:24:31;;;;;;;;;;;;;;;;;;7368672;19;1684;-63
2023/07/04 02:26:59;;;;;;;;;;;;;;;;;;7372138;19;1653;-63
2023/07/04 02:29:27;;;;;;;;;;;;;;;;;;7368116;19;1821;-63
2023/07/04 02:31:55;;;;;;;;;;;;;;;;;;7368313;19;1859;-63
2023/07/04 02:34:24;;;;;;;;;;;;;;;;;;7366866;19;1825;-63
2023/07/04 02:36:52;;;;;;;;;;;;;;;;;;7369773;19;1875;-61
2023/07/04 02:39:21;;;;;;;;;;;;;;;;;;7368905;19;1689;-63
2023/07/04 02:41:49;;;;;;;;;;;;;;;;;;7366214;19;803;-63
2023/07/04 02:44:18;;;;;;;;;;;;;;;;;;7364760;19;1470;-63
2023/07/04 02:46:46;;;;;;;;;;;;;;;;;;7370691;19;1341;-63
2023/07/04 02:49:14;;;;;;;;;;;;;;;;;;7365738;19;880;-63
2023/07/04 02:51:43;;;;;;;;;;;;;;;;;;7369393;19;1975;-63
2023/07/04 02:54:11;;;;;;;;;;;;;;;;;;7367067;19;1760;-62
2023/07/04 02:56:39;;;;;;;;;;;;;;;;;;7370581;19;1659;-62
2023/07/04 02:59:07;;;;;;;;;;;;;;;;;;7365296;19;773;-62
2023/07/04 03:01:36;;;;;;;;;;;;;;;;;;7368871;19;1828;-62
2023/07/04 03:04:04;;;;;;;;;;;;;;;;;;7367048;19;2189;-62
2023/07/04 03:06:32;;;;;;;;;;;;;;;;;;7370107;19;1488;-64
2023/07/04 03:09:02;;;;;;;;;;;;;;;;;;7370269;19;1988;-62
2023/07/04 03:11:30;;;;;;;;;;;;;;;;;;7368083;19;1853;-61
2023/07/04 03:14:00;;;;;;;;;;;;;;;;;;7367035;19;2064;-61
2023/07/04 03:16:28;;;;;;;;;;;;;;;;;;7367806;19;1664;-62
2023/07/04 03:18:57;;;;;;;;;;;;;;;;;;7367945;19;1682;-62
2023/07/04 03:21:25;;;;;;;;;;;;;;;;;;7369399;19;1672;-61
2023/07/04 03:23:55;;;;;;;;;;;;;;;;;;7364177;19;1858;-62
2023/07/04 03:26:23;;;;;;;;;;;;;;;;;;7369151;19;1769;-61
2023/07/04 03:28:51;;;;;;;;;;;;;;;;;;7366281;19;882;-63
2023/07/04 03:31:19;;;;;;;;;;;;;;;;;;7367448;19;2077;-62
2023/07/04 03:33:50;;;;;;;;;;;;;;;;;;7365354;19;1882;-62
2023/07/04 03:36:18;;;;;;;;;;;;;;;;;;7368828;19;1649;-61
2023/07/04 03:38:46;;;;;;;;;;;;;;;;;;7366985;19;1728;-61
2023/07/04 03:41:14;;;;;;;;;;;;;;;;;;7370019;19;1871;-61
2023/07/04 03:43:42;;;;;;;;;;;;;;;;;;7366634;19;1726;-62
2023/07/04 03:46:10;;;;;;;;;;;;;;;;;;7367716;19;1648;-61
2023/07/04 03:48:38;;;;;;;;;;;;;;;;;;7365451;19;2079;-62
2023/07/04 03:51:07;;;;;;;;;;;;;;;;;;7365545;19;2157;-63
2023/07/04 03:53:37;;;;;;;;;;;;;;;;;;7366935;19;1831;-62
2023/07/04 03:56:05;;;;;;;;;;;;;;;;;;7367818;19;1883;-62
2023/07/04 03:58:34;;;;;;;;;;;;;;;;;;7368999;19;1650;-63
2023/07/04 04:01:04;;;;;;;;;;;;;;;;;;7364478;19;859;-62
2023/07/04 04:03:36;;;;;;;;;;;;;;;;;;7365948;19;1988;-62
2023/07/04 04:06:05;;;;;;;;;;;;;;;;;;7370803;19;1797;-63
2023/07/04 04:08:33;;;;;;;;;;;;;;;;;;7364718;19;797;-60
2023/07/04 04:11:01;;;;;;;;;;;;;;;;;;7366746;19;2072;-63
2023/07/04 04:13:29;;;;;;;;;;;;;;;;;;7366419;19;2074;-63
2023/07/04 04:15:57;;;;;;;;;;;;;;;;;;7368889;19;1610;-63
2023/07/04 04:18:25;;;;;;;;;;;;;;;;;;7367875;19;1725;-63
2023/07/04 04:20:53;;;;;;;;;;;;;;;;;;7370101;19;1672;-64
2023/07/04 04:23:22;;;;;;;;;;;;;;;;;;7365044;19;1693;-64
2023/07/04 04:25:50;;;;;;;;;;;;;;;;;;7369684;19;1450;-63
2023/07/04 04:28:18;;;;;;;;;;;;;;;;;;7363272;19;1960;-63
2023/07/04 04:30:47;;;;;;;;;;;;;;;;;;7365844;19;1850;-63
2023/07/04 04:33:16;;;;;;;;;;;;;;;;;;7368028;19;1625;-63
2023/07/04 04:35:44;;;;;;;;;;;;;;;;;;7368615;19;1514;-63
2023/07/04 04:38:13;;;;;;;;;;;;;;;;;;7370698;19;997;-63
2023/07/04 04:40:41;;;;;;;;;;;;;;;;;;7371240;19;814;-64
2023/07/04 04:43:09;;;;;;;;;;;;;;;;;;7370933;19;1788;-64
2023/07/04 04:45:38;;;;;;;;;;;;;;;;;;7374687;19;1654;-64
2023/07/04 04:48:06;;;;;;;;;;;;;;;;;;7370265;19;1922;-64
2023/07/04 04:50:35;;;;;;;;;;;;;;;;;;7374403;19;1667;-64
2023/07/04 04:53:03;;;;;;;;;;;;;;;;;;7372473;19;2091;-64
2023/07/04 04:55:31;;;;;;;;;;;;;;;;;;7372644;19;1864;-64
2023/07/04 04:57:59;;;;;;;;;;;;;;;;;;7373649;19;1716;-63
2023/07/04 05:00:28;;;;;;;;;;;;;;;;;;7374100;19;1646;-64
2023/07/04 05:02:57;;;;;;;;;;;;;;;;;;7372933;19;1959;-64
2023/07/04 05:05:25;;;;;;;;;;;;;;;;;;7374965;19;1204;-63
2023/07/04 05:07:53;;;;;;;;;;;;;;;;;;7370680;19;856;-63
2023/07/04 05:10:21;;;;;;;;;;;;;;;;;;7370004;19;863;-63
2023/07/04 05:12:49;;;;;;;;;;;;;;;;;;7371264;19;2017;-62
2023/07/04 05:15:17;;;;;;;;;;;;;;;;;;7374068;19;1379;-63
2023/07/04 05:17:45;;;;;;;;;;;;;;;;;;7369575;19;1655;-64
2023/07/04 05:20:16;;;;;;;;;;;;;;;;;;7370175;19;1847;-63
2023/07/04 05:22:45;;;;;;;;;;;;;;;;;;7373345;19;1480;-63
2023/07/04 05:25:13;;;;;;;;;;;;;;;;;;7370066;19;872;-64
2023/07/04 05:27:41;;;;;;;;;;;;;;;;;;7370650;19;871;-64
2023/07/04 05:30:10;;;;;;;;;;;;;;;;;;7368271;19;1819;-62
2023/07/04 05:32:38;;;;;;;;;;;;;;;;;;7369969;19;1869;-62
2023/07/04 05:35:06;;;;;;;;;;;;;;;;;;7374175;19;1473;-63
2023/07/04 05:37:34;;;;;;;;;;;;;;;;;;7369864;19;863;-64
2023/07/04 05:40:02;;;;;;;;;;;;;;;;;;7370203;19;1700;-63
2023/07/04 05:42:30;;;;;;;;;;;;;;;;;;7373115;19;1849;-63
2023/07/04 05:44:59;;;;;;;;;;;;;;;;;;7374185;19;1466;-63
2023/07/04 05:47:27;;;;;;;;;;;;;;;;;;7367521;19;803;-63
2023/07/04 05:49:55;;;;;;;;;;;;;;;;;;7371008;19;1766;-64
2023/07/04 05:52:24;;;;;;;;;;;;;;;;;;7370896;19;1854;-64
2023/07/04 05:54:52;;;;;;;;;;;;;;;;;;7372532;19;1653;-64
2023/07/04 05:57:20;;;;;;;;;;;;;;;;;;7371576;19;1673;-64
2023/07/04 05:59:48;;;;;;;;;;;;;;;;;;7368570;19;841;-64
2023/07/04 06:02:16;;;;;;;;;;;;;;;;;;7372738;19;1699;-65
2023/07/04 06:04:44;;;;;;;;;;;;;;;;;;7372411;19;1558;-64
2023/07/04 06:07:12;;;;;;;;;;;;;;;;;;7372777;19;1522;-64
2023/07/04 06:09:40;;;;;;;;;;;;;;;;;;7372089;19;2085;-63
2023/07/04 06:12:09;;;;;;;;;;;;;;;;;;7371121;19;1958;-63
2023/07/04 06:14:37;;;;;;;;;;;;;;;;;;7370635;19;1741;-63
2023/07/04 06:17:06;;;;;;;;;;;;;;;;;;7372286;19;1853;-64
2023/07/04 06:19:34;;;;;;;;;;;;;;;;;;7370089;19;1779;-64
2023/07/04 06:22:05;;;;;;;;;;;;;;;;;;7371572;19;1922;-64
2023/07/04 06:24:34;;;;;;;;;;;;;;;;;;7370230;19;1502;-62
2023/07/04 06:27:04;;;;;;;;;;;;;;;;;;7368775;19;897;-64
2023/07/04 06:29:33;;;;;;;;;;;;;;;;;;7367128;19;1973;-64
2023/07/04 06:32:01;;;;;;;;;;;;;;;;;;7370745;19;1857;-63
2023/07/04 06:34:29;;;;;;;;;;;;;;;;;;7363815;19;1371;-63
2023/07/04 06:36:57;;;;;;;;;;;;;;;;;;7370542;19;1597;-64
2023/07/04 06:39:25;;;;;;;;;;;;;;;;;;7368026;19;1691;-63
2023/07/04 06:41:53;;;;;;;;;;;;;;;;;;7371070;19;1865;-62
2023/07/04 06:44:27;;;;;;;;;;;;;;;;;;7364864;19;1868;-62
2023/07/04 06:46:56;;;;;;;;;;;;;;;;;;7372068;19;1662;-64
2023/07/04 06:49:24;;;;;;;;;;;;;;;;;;7369151;19;2073;-64
2023/07/04 06:51:52;;;;;;;;;;;;;;;;;;7370372;19;2003;-63
2023/07/04 06:54:20;;;;;;;;;;;;;;;;;;7367261;19;1717;-62
2023/07/04 06:56:48;;;;;;;;;;;;;;;;;;7370784;19;1681;-64
2023/07/04 06:59:16;;;;;;;;;;;;;;;;;;7367157;19;1461;-63
2023/07/04 07:01:44;;;;;;;;;;;;;;;;;;7365947;19;810;-62
2023/07/04 07:04:15;;;;;;;;;;;;;;;;;;7366597;19;1879;-63
2023/07/04 07:06:44;;;;;;;;;;;;;;;;;;7369866;19;1780;-64
2023/07/04 07:09:12;;;;;;;;;;;;;;;;;;7369144;19;1570;-64
2023/07/04 07:11:41;;;;;;;;;;;;;;;;;;7370522;19;1861;-63
2023/07/04 07:14:09;;;;;;;;;;;;;;;;;;7364173;19;1797;-61
2023/07/04 07:16:37;;;;;;;;;;;;;;;;;;7368255;19;1781;-56
2023/07/04 07:19:06;;;;;;;;;;;;;;;;;;7367831;19;1882;-62
2023/07/04 07:21:34;;;;;;;;;;;;;;;;;;7369250;19;1392;-62
2023/07/04 07:24:03;;;;;;;;;;;;;;;;;;7361029;19;1277;-62
2023/07/04 07:26:33;;;;;;;;;;;;;;;;;;7366215;19;795;-62
2023/07/04 07:29:01;;;;;;;;;;;;;;;;;;7365829;19;840;-63
2023/07/04 07:31:29;;;;;;;;;;;;;;;;;;7366021;19;1852;-64
2023/07/04 07:33:57;;;;;;;;;;;;;;;;;;7364055;19;1284;-63
2023/07/04 07:36:25;;;;;;;;;;;;;;;;;;7366242;19;885;-61
2023/07/04 07:38:53;;;;;;;;;;;;;;;;;;7365890;19;947;-61
2023/07/04 07:41:21;;;;;;;;;;;;;;;;;;7365659;19;881;-61
2023/07/04 07:43:50;;;;;;;;;;;;;;;;;;7362148;19;2000;-59
2023/07/04 07:46:18;;;;;;;;;;;;;;;;;;7367201;19;1722;-60
2023/07/04 07:48:46;;;;;;;;;;;;;;;;;;7367092;19;1648;-62
2023/07/04 07:51:14;;;;;;;;;;;;;;;;;;7368543;19;1655;-62
2023/07/04 07:53:42;;;;;;;;;;;;;;;;;;7362057;19;1837;-64
2023/07/04 07:56:10;;;;;;;;;;;;;;;;;;7365533;19;2063;-60
2023/07/04 07:58:38;;;;;;;;;;;;;;;;;;7369493;19;1424;-61
2023/07/04 08:01:07;;;;;;;;;;;;;;;;;;7365010;19;763;-62
2023/07/04 08:03:35;;;;;;;;;;;;;;;;;;7363631;19;1989;-60
2023/07/04 08:06:03;;;;;;;;;;;;;;;;;;7369908;19;1689;-59
2023/07/04 08:08:31;;;;;;;;;;;;;;;;;;7364889;19;801;-61
2023/07/04 08:10:59;;;;;;;;;;;;;;;;;;7365056;19;1701;-60
2023/07/04 08:13:27;;;;;;;;;;;;;;;;;;7365576;19;1841;-58
2023/07/04 08:15:55;;;;;;;;;;;;;;;;;;7365201;19;881;-59
2023/07/04 08:18:24;;;;;;;;;;;;;;;;;;7365495;19;816;-56
2023/07/04 08:20:52;;;;;;;;;;;;;;;;;;7365552;19;825;-61
2023/07/04 08:23:20;;;;;;;;;;;;;;;;;;7363806;19;2121;-58
2023/07/04 08:25:48;;;;;;;;;;;;;;;;;;7368436;19;1473;-61
2023/07/04 08:28:17;;;;;;;;;;;;;;;;;;7367167;19;1965;-60
2023/07/04 08:30:45;;;;;;;;;;;;;;;;;;7364676;19;1707;-61
2023/07/04 08:33:17;;;;;;;;;;;;;;;;;;7365522;19;1850;-62
2023/07/04 08:35:45;;;;;;;;;;;;;;;;;;7363802;19;792;-60
2023/07/04 08:38:13;;;;;;;;;;;;;;;;;;7363275;19;845;-63
2023/07/04 08:40:41;;;;;;;;;;;;;;;;;;7364804;19;1976;-60
2023/07/04 08:43:09;;;;;;;;;;;;;;;;;;7364782;19;2057;-62
2023/07/04 08:45:37;;;;;;;;;;;;;;;;;;7367515;19;1515;-59
2023/07/04 08:48:05;;;;;;;;;;;;;;;;;;7367497;19;1097;-62
2023/07/04 08:50:33;;;;;;;;;;;;;;;;;;7364659;19;2119;-61
2023/07/04 08:53:02;;;;;;;;;;;;;;;;;;7364682;19;1850;-60
2023/07/04 08:55:31;;;;;;;;;;;;;;;;;;7366500;19;1797;-60
2023/07/04 08:57:59;;;;;;;;;;;;;;;;;;7365412;19;1623;-62
2023/07/04 09:00:28;;;;;;;;;;;;;;;;;;7363743;19;1766;-58
2023/07/04 09:02:56;;;;;;;;;;;;;;;;;;7367057;19;1652;-60
2023/07/04 09:05:24;;;;;;;;;;;;;;;;;;7362437;19;864;-59
2023/07/04 09:07:52;;;;;;;;;;;;;;;;;;7365757;19;1682;-59
2023/07/04 09:10:20;;;;;;;;;;;;;;;;;;7364891;19;1652;-59
2023/07/04 09:12:48;;;;;;;;;;;;;;;;;;7362343;19;1845;-61
2023/07/04 09:15:16;;;;;;;;;;;;;;;;;;7364264;19;1714;-59
2023/07/04 09:17:45;;;;;;;;;;;;;;;;;;7366630;19;1441;-60
2023/07/04 09:20:13;;;;;;;;;;;;;;;;;;7362394;19;821;-61
2023/07/04 09:22:41;;;;;;;;;;;;;;;;;;7364809;19;2023;-59
2023/07/04 09:25:09;;;;;;;;;;;;;;;;;;7369781;19;1693;-62
2023/07/04 09:27:37;;;;;;;;;;;;;;;;;;7371445;19;2079;-60
2023/07/04 09:30:06;;;;;;;;;;;;;;;;;;7371272;19;1840;-62
2023/07/04 09:32:34;;;;;;;;;;;;;;;;;;7368517;19;1861;-62
2023/07/04 09:35:03;;;;;;;;;;;;;;;;;;7373544;19;1462;-61
2023/07/04 09:37:31;;;;;;;;;;;;;;;;;;7368704;19;828;-61
2023/07/04 09:39:59;;;;;;;;;;;;;;;;;;7368400;19;731;-63
2023/07/04 09:42:27;;;;;;;;;;;;;;;;;;7368323;19;1266;-62
2023/07/04 09:44:55;;;;;;;;;;;;;;;;;;7368558;19;801;-60
2023/07/04 09:47:23;;;;;;;;;;;;;;;;;;7368789;19;852;-58
2023/07/04 09:49:52;;;;;;;;;;;;;;;;;;7367508;19;851;-62
2023/07/04 09:52:20;;;;;;;;;;;;;;;;;;7369340;19;1858;-60
2023/07/04 09:54:49;;;;;;;;;;;;;;;;;;7367688;19;923;-61
2023/07/04 09:57:17;;;;;;;;;;;;;;;;;;7368919;19;1906;-60
2023/07/04 09:59:45;;;;;;;;;;;;;;;;;;7370142;19;1637;-57
2023/07/04 10:02:13;;;;;;;;;;;;;;;;;;7371902;19;1855;-56
2023/07/04 10:04:41;;;;;;;;;;;;;;;;;;7372344;19;1772;-62
2023/07/04 10:07:09;;;;;;;;;;;;;;;;;;7371198;19;1633;-59
2023/07/04 10:09:38;;;;;;;;;;;;;;;;;;7367721;19;813;-60
2023/07/04 10:12:06;;;;;;;;;;;;;;;;;;7368667;19;880;-61
2023/07/04 10:14:34;;;;;;;;;;;;;;;;;;7366270;19;1854;-58
2023/07/04 10:17:02;;;;;;;;;;;;;;;;;;7368490;19;825;-63
2023/07/04 10:19:30;;;;;;;;;;;;;;;;;;7367148;19;896;-59
2023/07/04 10:21:58;;;;;;;;;;;;;;;;;;7368406;19;852;-59
2023/07/04 10:24:26;;;;;;;;;;;;;;;;;;7365844;19;1309;-60
2023/07/04 10:26:54;;;;;;;;;;;;;;;;;;7369513;19;1634;-60
2023/07/04 10:29:22;;;;;;;;;;;;;;;;;;7370822;19;1448;-60
2023/07/04 10:31:51;;;;;;;;;;;;;;;;;;7367957;19;768;-61
2023/07/04 10:34:19;;;;;;;;;;;;;;;;;;7365248;19;1854;-62
2023/07/04 10:36:48;;;;;;;;;;;;;;;;;;7368884;19;1715;-60
2023/07/04 10:39:16;;;;;;;;;;;;;;;;;;7368808;19;1460;-60
2023/07/04 10:41:44;;;;;;;;;;;;;;;;;;7370119;19;2035;-60
2023/07/04 10:44:13;;;;;;;;;;;;;;;;;;7365705;19;1761;-60
2023/07/04 10:46:42;;;;;;;;;;;;;;;;;;7369623;19;1702;-59
2023/07/04 10:49:10;;;;;;;;;;;;;;;;;;7369680;19;1452;-61
2023/07/04 10:51:38;;;;;;;;;;;;;;;;;;7369381;19;1801;-60
2023/07/04 10:54:06;;;;;;;;;;;;;;;;;;7369586;19;1849;-62
2023/07/04 10:56:34;;;;;;;;;;;;;;;;;;7366176;19;848;-59
2023/07/04 10:59:02;;;;;;;;;;;;;;;;;;7365967;19;822;-57
2023/07/04 11:01:30;;;;;;;;;;;;;;;;;;7367872;19;2082;-60
2023/07/04 11:03:59;;;;;;;;;;;;;;;;;;7366464;19;1590;-59
2023/07/04 11:06:29;;;;;;;;;;;;;;;;;;7368208;19;2008;-56
2023/07/04 11:08:57;;;;;;;;;;;;;;;;;;7368864;19;1697;-55
2023/07/04 11:11:25;;;;;;;;;;;;;;;;;;7365870;19;885;-60
2023/07/04 11:13:53;;;;;;;;;;;;;;;;;;7363956;19;1842;-60
2023/07/04 11:16:22;;;;;;;;;;;;;;;;;;7366908;19;872;-60
2023/07/04 11:18:50;;;;;;;;;;;;;;;;;;7365642;19;834;-56
2023/07/04 11:21:18;;;;;;;;;;;;;;;;;;7366683;19;1983;-59
2023/07/04 11:23:46;;;;;;;;;;;;;;;;;;7368780;19;1469;-59
2023/07/04 11:26:14;;;;;;;;;;;;;;;;;;7365918;19;884;-59
2023/07/04 11:28:43;;;;;;;;;;;;;;;;;;7367298;19;1925;-61
2023/07/04 11:31:12;;;;;;;;;;;;;;;;;;7367659;19;1808;-60
2023/07/04 11:33:40;;;;;;;;;;;;;;;;;;7365306;19;1895;-59
2023/07/04 11:36:08;;;;;;;;;;;;;;;;;;7368086;19;1242;-61
2023/07/04 11:38:36;;;;;;;;;;;;;;;;;;7364933;19;862;-60
2023/07/04 11:41:04;;;;;;;;;;;;;;;;;;7365781;19;1205;-61
2023/07/04 11:43:33;;;;;;;;;;;;;;;;;;7365543;19;1734;-62
2023/07/04 11:46:01;;;;;;;;;;;;;;;;;;7368962;19;1537;-60
2023/07/04 11:48:29;;;;;;;;;;;;;;;;;;7365437;19;832;-60
2023/07/04 11:50:57;;;;;;;;;;;;;;;;;;7366138;19;802;-61
2023/07/04 11:53:25;;;;;;;;;;;;;;;;;;7364703;19;1854;-61
2023/07/04 11:55:53;;;;;;;;;;;;;;;;;;7368218;19;1899;-62
2023/07/04 11:58:21;;;;;;;;;;;;;;;;;;7367539;19;1667;-62
2023/07/04 12:00:50;;;;;;;;;;;;;;;;;;7366090;19;1703;-62
2023/07/04 12:03:18;;;;;;;;;;;;;;;;;;7366896;19;1458;-61
2023/07/04 12:05:46;;;;;;;;;;;;;;;;;;7365961;19;1818;-61
2023/07/04 12:08:14;;;;;;;;;;;;;;;;;;7367162;19;1468;-61
2023/07/04 12:10:42;;;;;;;;;;;;;;;;;;7365727;19;1909;-58
2023/07/04 12:13:11;;;;;;;;;;;;;;;;;;7366143;19;1850;-59
2023/07/04 12:15:39;;;;;;;;;;;;;;;;;;7369333;19;1650;-61
2023/07/04 12:18:07;;;;;;;;;;;;;;;;;;7364963;19;887;-59
2023/07/04 12:20:36;;;;;;;;;;;;;;;;;;7365187;19;1666;-60
2023/07/04 12:23:07;;;;;;;;;;;;;;;;;;7369373;19;1515;-59
2023/07/04 12:25:35;;;;;;;;;;;;;;;;;;7367297;19;1797;-59
2023/07/04 12:28:04;;;;;;;;;;;;;;;;;;7367927;19;1797;-59
2023/07/04 12:30:32;;;;;;;;;;;;;;;;;;7368200;19;1820;-56
2023/07/04 12:33:00;;;;;;;;;;;;;;;;;;7366280;19;1859;-58
2023/07/04 12:35:28;;;;;;;;;;;;;;;;;;7367774;19;1668;-57
2023/07/04 12:37:57;;;;;;;;;;;;;;;;;;7363806;19;820;-60
2023/07/04 12:40:25;;;;;;;;;;;;;;;;;;7364339;19;790;-56
2023/07/04 12:42:53;;;;;;;;;;;;;;;;;;7363856;19;1287;-58
2023/07/04 12:45:22;;;;;;;;;;;;;;;;;;7364035;19;832;-59
2023/07/04 12:47:50;;;;;;;;;;;;;;;;;;7363776;19;844;-58
2023/07/04 12:50:19;;;;;;;;;;;;;;;;;;7363612;19;789;-60
2023/07/04 12:52:48;;;;;;;;;;;;;;;;;;7365458;19;1230;-61
2023/07/04 12:55:16;;;;;;;;;;;;;;;;;;7362504;19;1980;-58
2023/07/04 12:57:44;;;;;;;;;;;;;;;;;;7374927;19;1690;-54
2023/07/04 13:00:12;;;;;;;;;;;;;;;;;;7374581;19;1595;-54
2023/07/04 13:02:40;;;;;;;;;;;;;;;;;;7375747;19;1321;-60
2023/07/04 13:05:09;;;;;;;;;;;;;;;;;;7371227;19;1767;-60
2023/07/04 13:07:37;;;;;;;;;;;;;;;;;;7373725;19;1230;-61
2023/07/04 13:10:05;;;;;;;;;;;;;;;;;;7369650;19;765;-60
2023/07/04 13:12:33;;;;;;;;;;;;;;;;;;7371201;19;1695;-62
2023/07/04 13:15:01;;;;;;;;;;;;;;;;;;7370758;19;1848;-60
2023/07/04 13:17:30;;;;;;;;;;;;;;;;;;7373884;19;1417;-61
2023/07/04 13:19:58;;;;;;;;;;;;;;;;;;7371834;19;1622;-61
2023/07/04 13:22:26;;;;;;;;;;;;;;;;;;7371934;19;1626;-59
2023/07/04 13:24:54;;;;;;;;;;;;;;;;;;7369822;19;871;-63
2023/07/04 13:27:22;;;;;;;;;;;;;;;;;;7369248;19;788;-61
2023/07/04 13:29:50;;;;;;;;;;;;;;;;;;7368859;19;1707;-63
2023/07/04 13:32:18;;;;;;;;;;;;;;;;;;7372542;19;1978;-62
2023/07/04 13:34:47;;;;;;;;;;;;;;;;;;7368713;19;1837;-62
2023/07/04 13:37:15;;;;;;;;;;;;;;;;;;7366364;19;810;-62
2023/07/04 13:39:43;;;;;;;;;;;;;;;;;;7368561;19;847;-60
2023/07/04 13:42:11;;;;;;;;;;;;;;;;;;7369370;19;862;-62
2023/07/04 13:44:40;;;;;;;;;;;;;;;;;;7369201;19;781;-62
2023/07/04 13:47:09;;;;;;;;;;;;;;;;;;7369842;19;872;-62
2023/07/04 13:49:37;;;;;;;;;;;;;;;;;;7368565;19;860;-63
2023/07/04 13:52:05;;;;;;;;;;;;;;;;;;7367140;19;2099;-62
2023/07/04 13:54:33;;;;;;;;;;;;;;;;;;7370700;19;1866;-62
2023/07/04 13:57:01;;;;;;;;;;;;;;;;;;7371652;19;2080;-62
2023/07/04 13:59:29;;;;;;;;;;;;;;;;;;7369643;19;1691;-63
2023/07/04 14:01:58;;;;;;;;;;;;;;;;;;7369057;19;822;-62
2023/07/04 14:04:26;;;;;;;;;;;;;;;;;;7369489;19;1797;-61
2023/07/04 14:06:54;;;;;;;;;;;;;;;;;;7370783;19;1663;-61
2023/07/04 14:09:22;;;;;;;;;;;;;;;;;;7368583;19;1575;-62
2023/07/04 14:11:50;;;;;;;;;;;;;;;;;;7371746;19;1717;-64
2023/07/04 14:14:18;;;;;;;;;;;;;;;;;;7370989;19;1878;-62
2023/07/04 14:16:46;;;;;;;;;;;;;;;;;;7367203;19;1621;-62
2023/07/04 14:19:17;;;;;;;;;;;;;;;;;;7367542;19;2201;-62
2023/07/04 14:21:45;;;;;;;;;;;;;;;;;;7372561;19;1670;-62
2023/07/04 14:24:13;;;;;;;;;;;;;;;;;;7367159;19;1300;-62
2023/07/04 14:26:41;;;;;;;;;;;;;;;;;;7370319;19;833;-61
2023/07/04 14:29:09;;;;;;;;;;;;;;;;;;7370007;19;1784;-63
2023/07/04 14:31:38;;;;;;;;;;;;;;;;;;7372841;19;2026;-63
2023/07/04 14:34:06;;;;;;;;;;;;;;;;;;7371638;19;1850;-63
2023/07/04 14:36:35;;;;;;;;;;;;;;;;;;7370372;19;1382;-62
2023/07/04 14:39:03;;;;;;;;;;;;;;;;;;7370736;19;1659;-62
2023/07/04 14:41:31;;;;;;;;;;;;;;;;;;7369963;19;1681;-62
2023/07/04 14:44:00;;;;;;;;;;;;;;;;;;7365618;19;1224;-62
2023/07/04 14:46:28;;;;;;;;;;;;;;;;;;7369875;19;1663;-61
2023/07/04 14:48:56;;;;;;;;;;;;;;;;;;7371286;19;1564;-60
2023/07/04 14:51:24;;;;;;;;;;;;;;;;;;7369544;19;1753;-62
2023/07/04 14:53:52;;;;;;;;;;;;;;;;;;7369766;19;1838;-60
2023/07/04 14:56:21;;;;;;;;;;;;;;;;;;7368023;19;1879;-62
2023/07/04 14:58:49;;;;;;;;;;;;;;;;;;7369728;19;1678;-60
2023/07/04 15:01:17;;;;;;;;;;;;;;;;;;7370721;19;1732;-61
2023/07/04 15:03:45;;;;;;;;;;;;;;;;;;7368990;19;1719;-58
2023/07/04 15:06:13;;;;;;;;;;;;;;;;;;7364252;19;811;-59
2023/07/04 15:08:41;;;;;;;;;;;;;;;;;;7365496;19;841;-60
2023/07/04 15:11:09;;;;;;;;;;;;;;;;;;7367208;19;808;-60
2023/07/04 15:13:37;;;;;;;;;;;;;;;;;;7364619;19;1324;-61
2023/07/04 15:16:07;;;;;;;;;;;;;;;;;;7362195;19;2096;-60
2023/07/04 15:18:35;;;;;;;;;;;;;;;;;;7370454;19;2105;-61
2023/07/04 15:21:03;;;;;;;;;;;;;;;;;;7369784;19;1873;-59
2023/07/04 15:23:31;;;;;;;;;;;;;;;;;;7368282;19;1919;-60
2023/07/04 15:26:00;;;;;;;;;;;;;;;;;;7367711;19;1934;-60
2023/07/04 15:28:28;;;;;;;;;;;;;;;;;;7367949;19;1661;-61
2023/07/04 15:30:56;;;;;;;;;;;;;;;;;;7370110;19;1624;-61
2023/07/04 15:33:24;;;;;;;;;;;;;;;;;;7368196;19;1666;-59
2023/07/04 15:35:52;;;;;;;;;;;;;;;;;;7363896;19;1846;-61
2023/07/04 15:38:20;;;;;;;;;;;;;;;;;;7368058;19;1518;-62
2023/07/04 15:40:49;;;;;;;;;;;;;;;;;;7370942;19;1743;-61
2023/07/04 15:43:17;;;;;;;;;;;;;;;;;;7364937;19;1338;-61
2023/07/04 15:45:45;;;;;;;;;;;;;;;;;;7366563;19;844;-61
2023/07/04 15:48:13;;;;;;;;;;;;;;;;;;7365039;19;964;-61
2023/07/04 15:50:41;;;;;;;;;;;;;;;;;;7365757;19;809;-61
2023/07/04 15:53:09;;;;;;;;;;;;;;;;;;7366703;19;2059;-60
2023/07/04 15:55:37;;;;;;;;;;;;;;;;;;7366647;19;1873;-61
2023/07/04 15:58:06;;;;;;;;;;;;;;;;;;7368814;19;1827;-61
2023/07/04 16:00:34;;;;;;;;;;;;;;;;;;7368727;19;1250;-61
2023/07/04 16:03:03;;;;;;;;;;;;;;;;;;7364137;19;1348;-60
2023/07/04 16:05:31;;;;;;;;;;;;;;;;;;7368562;19;2046;-61
2023/07/04 16:07:59;;;;;;;;;;;;;;;;;;7368641;19;1622;-59
2023/07/04 16:10:27;;;;;;;;;;;;;;;;;;7367810;19;1754;-61
2023/07/04 16:12:55;;;;;;;;;;;;;;;;;;7368617;19;1314;-60
2023/07/04 16:15:23;;;;;;;;;;;;;;;;;;7365739;19;2007;-61
2023/07/04 16:17:51;;;;;;;;;;;;;;;;;;7369198;19;1658;-61
2023/07/04 16:20:20;;;;;;;;;;;;;;;;;;7365921;19;1622;-61
2023/07/04 16:22:48;;;;;;;;;;;;;;;;;;7368558;19;1711;-61
2023/07/04 16:25:16;;;;;;;;;;;;;;;;;;7368294;19;902;-61
2023/07/04 16:27:44;;;;;;;;;;;;;;;;;;7365014;19;914;-61
2023/07/04 16:30:12;;;;;;;;;;;;;;;;;;7366653;19;1748;-61
2023/07/04 16:32:40;;;;;;;;;;;;;;;;;;7366972;19;1570;-62
2023/07/04 16:35:08;;;;;;;;;;;;;;;;;;7365475;19;2551;-60
2023/07/04 16:37:36;;;;;;;;;;;;;;;;;;7366507;19;1637;-61
2023/07/04 16:40:04;;;;;;;;;;;;;;;;;;7368151;19;1876;-62
2023/07/04 16:42:33;;;;;;;;;;;;;;;;;;7367715;19;1631;-61
2023/07/04 16:45:01;;;;;;;;;;;;;;;;;;7364661;19;860;-61
2023/07/04 16:47:29;;;;;;;;;;;;;;;;;;7364125;19;854;-62
2023/07/04 16:49:57;;;;;;;;;;;;;;;;;;7364267;19;757;-59
2023/07/04 16:52:25;;;;;;;;;;;;;;;;;;7363696;19;1294;-61
2023/07/04 16:54:53;;;;;;;;;;;;;;;;;;7362918;19;1863;-61
2023/07/04 16:57:21;;;;;;;;;;;;;;;;;;7364761;19;865;-60
2023/07/04 16:59:49;;;;;;;;;;;;;;;;;;7363181;19;814;-61
2023/07/04 17:02:18;;;;;;;;;;;;;;;;;;7364046;19;1280;-61
2023/07/04 17:04:46;;;;;;;;;;;;;;;;;;7364142;19;860;-61
2023/07/04 17:07:14;;;;;;;;;;;;;;;;;;7363331;19;801;-60
2023/07/04 17:09:42;;;;;;;;;;;;;;;;;;7363157;19;833;-60
2023/07/04 17:12:10;;;;;;;;;;;;;;;;;;7363035;19;795;-61